createdAt,value
2023-03-07T00:00:08.911Z,8.07
2023-03-07T00:02:38.823Z,7.17
2023-03-07T00:05:08.888Z,7.90
2023-03-07T00:07:37.141Z,7.93
2023-03-07T00:10:04.118Z,7.87
2023-03-07T00:12:31.056Z,7.10
2023-03-07T00:14:57.542Z,7.53
2023-03-07T00:17:23.999Z,7.83
2023-03-07T00:19:50.498Z,8.20
2023-03-07T00:22:17.010Z,6.87
2023-03-07T00:24:43.509Z,6.80
2023-03-07T00:27:10.324Z,6.93
2023-03-07T00:29:39.847Z,7.87
2023-03-07T00:32:09.203Z,7.67
2023-03-07T00:34:36.713Z,7.03
2023-03-07T00:37:03.217Z,7.07
2023-03-07T00:39:29.671Z,7.27
2023-03-07T00:41:56.135Z,7.43
2023-03-07T00:44:22.625Z,7.33
2023-03-07T00:46:49.102Z,7.87
2023-03-07T00:49:15.525Z,7.13
2023-03-07T00:51:41.944Z,7.83
2023-03-07T00:54:11.926Z,7.37
2023-03-07T00:56:41.650Z,8.27
2023-03-07T00:59:11.551Z,8.00
2023-03-07T01:01:41.715Z,7.83
2023-03-07T01:04:10.966Z,8.47
2023-03-07T01:06:38.182Z,8.47
2023-03-07T01:09:08.373Z,7.67
2023-03-07T01:11:36.976Z,8.33
2023-03-07T01:14:05.870Z,6.97
2023-03-07T01:16:34.352Z,6.37
2023-03-07T01:19:04.615Z,7.77
2023-03-07T01:21:34.049Z,7.70
2023-03-07T01:24:01.003Z,6.10
2023-03-07T01:26:30.198Z,7.07
2023-03-07T01:28:58.902Z,7.57
2023-03-07T01:31:26.210Z,7.03
2023-03-07T01:33:53.799Z,6.43
2023-03-07T01:36:21.660Z,6.93
2023-03-07T01:38:49.261Z,8.07
2023-03-07T01:41:16.815Z,7.17
2023-03-07T01:43:43.464Z,7.47
2023-03-07T01:46:18.873Z,7.83
2023-03-07T01:48:48.853Z,7.80
2023-03-07T01:51:15.510Z,7.00
2023-03-07T01:53:45.962Z,7.40
2023-03-07T01:56:13.145Z,6.70
2023-03-07T01:58:42.051Z,7.43
2023-03-07T02:01:15.388Z,6.40
2023-03-07T02:04:15.120Z,6.20
2023-03-07T02:06:46.018Z,7.43
2023-03-07T02:09:18.567Z,6.90
2023-03-07T02:11:46.110Z,7.30
2023-03-07T02:14:13.714Z,7.43
2023-03-07T02:16:41.031Z,6.70
2023-03-07T02:19:30.358Z,6.40
2023-03-07T02:22:09.717Z,6.63
2023-03-07T02:25:15.350Z,6.47
2023-03-07T02:27:45.107Z,6.70
2023-03-07T02:30:12.342Z,6.27
2023-03-07T02:32:38.945Z,7.67
2023-03-07T02:35:19.677Z,7.27
2023-03-07T02:37:49.709Z,6.80
2023-03-07T02:40:19.596Z,7.47
2023-03-07T02:42:47.282Z,6.60
2023-03-07T02:45:19.065Z,6.97
2023-03-07T02:47:46.075Z,7.63
2023-03-07T02:50:17.548Z,7.10
2023-03-07T02:52:47.800Z,7.40
2023-03-07T02:55:17.203Z,8.53
2023-03-07T02:57:46.199Z,7.63
2023-03-07T03:00:15.370Z,9.27
2023-03-07T03:02:41.850Z,8.57
2023-03-07T03:05:09.192Z,9.10
2023-03-07T03:07:35.697Z,8.57
2023-03-07T03:10:02.574Z,9.23
2023-03-07T03:12:29.103Z,9.37
2023-03-07T03:14:55.556Z,9.20
2023-03-07T03:17:22.119Z,8.47
2023-03-07T03:19:48.623Z,8.80
2023-03-07T03:22:20.440Z,9.27
2023-03-07T03:24:49.709Z,8.70
2023-03-07T03:27:20.128Z,7.73
2023-03-07T03:29:47.299Z,8.73
2023-03-07T03:32:13.782Z,8.63
2023-03-07T03:34:40.630Z,9.00
2023-03-07T03:37:07.862Z,9.27
2023-03-07T03:39:34.304Z,7.93
2023-03-07T03:42:00.971Z,8.73
2023-03-07T03:44:27.481Z,9.27
2023-03-07T03:46:55.729Z,8.10
2023-03-07T03:49:22.309Z,8.73
2023-03-07T03:51:49.431Z,9.20
2023-03-07T03:54:18.408Z,8.43
2023-03-07T03:56:45.233Z,8.43
2023-03-07T03:59:11.867Z,9.40
2023-03-07T04:01:38.423Z,7.77
2023-03-07T04:04:05.016Z,9.60
2023-03-07T04:06:34.072Z,8.67
2023-03-07T04:09:00.994Z,8.47
2023-03-07T04:11:27.535Z,9.20
2023-03-07T04:13:54.254Z,8.70
2023-03-07T04:16:22.473Z,8.13
2023-03-07T04:18:52.405Z,8.70
2023-03-07T04:21:22.595Z,7.73
2023-03-07T04:23:55.353Z,12.03
2023-03-07T04:26:22.268Z,10.73
2023-03-07T04:28:51.597Z,10.33
2023-03-07T04:31:23.282Z,8.03
2023-03-07T04:33:56.045Z,8.90
2023-03-07T04:36:23.805Z,8.03
2023-03-07T04:38:53.991Z,9.07
2023-03-07T04:41:26.622Z,8.50
2023-03-07T04:43:53.258Z,9.60
2023-03-07T04:46:20.927Z,8.70
2023-03-07T04:48:47.629Z,10.13
2023-03-07T04:51:14.674Z,8.60
2023-03-07T04:53:41.162Z,9.80
2023-03-07T04:56:09.161Z,7.27
2023-03-07T04:58:36.504Z,9.07
2023-03-07T05:01:04.129Z,9.13
2023-03-07T05:03:30.635Z,8.47
2023-03-07T05:06:02.882Z,9.77
2023-03-07T05:08:29.810Z,8.90
2023-03-07T05:10:56.632Z,8.97
2023-03-07T05:13:25.966Z,8.93
2023-03-07T05:15:57.412Z,7.77
2023-03-07T05:18:24.772Z,8.63
2023-03-07T05:20:54.510Z,8.67
2023-03-07T05:23:25.148Z,7.87
2023-03-07T05:25:53.757Z,8.37
2023-03-07T05:28:20.278Z,8.67
2023-03-07T05:30:47.737Z,8.60
2023-03-07T05:33:15.103Z,7.87
2023-03-07T05:35:41.734Z,8.97
2023-03-07T05:38:08.255Z,8.40
2023-03-07T05:40:34.973Z,8.67
2023-03-07T05:43:01.715Z,8.77
2023-03-07T05:45:28.250Z,9.47
2023-03-07T05:47:54.806Z,9.10
2023-03-07T05:50:23.678Z,8.50
2023-03-07T05:52:50.165Z,10.87
2023-03-07T05:55:16.708Z,8.07
2023-03-07T05:57:43.226Z,8.67
2023-03-07T06:00:11.335Z,8.90
2023-03-07T06:02:37.786Z,9.20
2023-03-07T06:05:04.520Z,9.00
2023-03-07T06:07:30.986Z,10.27
2023-03-07T06:09:57.558Z,8.60
2023-03-07T06:12:27.189Z,10.03
2023-03-07T06:14:56.691Z,9.87
2023-03-07T06:17:26.197Z,10.60
2023-03-07T06:19:55.598Z,10.30
2023-03-07T06:22:24.445Z,10.13
2023-03-07T06:24:50.976Z,9.57
2023-03-07T06:27:17.586Z,9.93
2023-03-07T06:29:44.093Z,10.07
2023-03-07T06:32:10.622Z,8.23
2023-03-07T06:34:37.380Z,9.87
2023-03-07T06:37:03.949Z,8.80
2023-03-07T06:39:31.495Z,9.83
2023-03-07T06:41:58.419Z,9.33
2023-03-07T06:44:25.270Z,9.70
2023-03-07T06:46:54.311Z,11.13
2023-03-07T06:49:21.061Z,9.67
2023-03-07T06:51:47.940Z,9.53
2023-03-07T06:54:14.799Z,11.87
2023-03-07T06:56:43.587Z,10.37
2023-03-07T06:59:12.148Z,9.60
2023-03-07T07:01:38.992Z,10.43
2023-03-07T07:04:05.864Z,10.00
2023-03-07T07:06:32.808Z,9.97
2023-03-07T07:09:00.107Z,9.20
2023-03-07T07:11:27.302Z,10.00
2023-03-07T07:13:56.925Z,10.40
2023-03-07T07:16:27.090Z,9.13
2023-03-07T07:18:54.384Z,9.40
2023-03-07T07:21:21.683Z,9.53
2023-03-07T07:23:48.225Z,10.23
2023-03-07T07:26:14.700Z,10.03
2023-03-07T07:28:41.178Z,10.00
2023-03-07T07:31:07.709Z,9.53
2023-03-07T07:33:34.408Z,8.60
2023-03-07T07:36:01.027Z,9.80
2023-03-07T07:38:27.685Z,9.93
2023-03-07T07:40:56.329Z,12.10
2023-03-07T07:43:22.854Z,11.27
2023-03-07T07:45:49.295Z,10.50
2023-03-07T07:48:16.453Z,9.53
2023-03-07T07:50:45.408Z,9.50
2023-03-07T07:53:11.931Z,11.07
2023-03-07T07:55:38.476Z,11.00
2023-03-07T07:58:05.588Z,10.73
2023-03-07T08:00:32.372Z,11.73
2023-03-07T08:02:59.304Z,12.97
2023-03-07T08:05:28.793Z,10.27
2023-03-07T08:08:04.741Z,9.77
2023-03-07T08:10:31.234Z,11.10
2023-03-07T08:13:00.795Z,10.70
2023-03-07T08:15:27.267Z,10.43
2023-03-07T08:17:55.978Z,10.20
2023-03-07T08:20:23.570Z,10.90
2023-03-07T08:22:52.840Z,10.60
2023-03-07T08:25:24.284Z,11.73
2023-03-07T08:27:59.013Z,10.20
2023-03-07T08:30:30.205Z,10.87
2023-03-07T08:32:57.465Z,11.17
2023-03-07T08:35:28.458Z,10.43
2023-03-07T08:38:00.512Z,10.57
2023-03-07T08:40:30.770Z,10.30
2023-03-07T08:42:59.340Z,11.57
2023-03-07T08:45:28.599Z,10.80
2023-03-07T08:47:58.484Z,10.30
2023-03-07T08:50:28.743Z,10.17
2023-03-07T08:52:57.623Z,11.00
2023-03-07T08:55:26.566Z,9.73
2023-03-07T08:57:53.038Z,9.80
2023-03-07T09:00:19.826Z,10.97
2023-03-07T09:02:46.322Z,10.47
2023-03-07T09:05:12.822Z,10.33
2023-03-07T09:07:39.381Z,10.93
2023-03-07T09:10:06.501Z,10.67
2023-03-07T09:12:34.189Z,9.77
2023-03-07T09:15:00.820Z,10.53
2023-03-07T09:17:27.326Z,11.00
2023-03-07T09:19:55.929Z,10.80
2023-03-07T09:22:22.356Z,12.20
2023-03-07T09:24:48.818Z,10.43
2023-03-07T09:27:15.322Z,10.23
2023-03-07T09:29:41.848Z,10.87
2023-03-07T09:32:08.373Z,10.30
2023-03-07T09:34:34.914Z,9.87
2023-03-07T09:37:01.381Z,9.03
2023-03-07T09:39:27.951Z,12.50
2023-03-07T09:41:56.907Z,9.50
2023-03-07T09:44:35.195Z,9.40
2023-03-07T09:47:41.307Z,10.47
2023-03-07T09:50:26.692Z,9.97
2023-03-07T09:52:57.797Z,11.20
2023-03-07T09:55:28.529Z,11.17
2023-03-07T09:58:03.948Z,11.90
2023-03-07T10:00:46.035Z,12.63
2023-03-07T10:03:31.381Z,14.50
2023-03-07T10:06:07.564Z,15.93
2023-03-07T10:08:34.565Z,15.03
2023-03-07T10:11:16.809Z,14.87
2023-03-07T10:14:06.230Z,14.83
2023-03-07T10:16:56.546Z,14.73
2023-03-07T10:19:35.922Z,12.90
2023-03-07T10:22:45.152Z,12.93
2023-03-07T10:25:18.897Z,10.97
2023-03-07T10:27:48.236Z,11.43
2023-03-07T10:30:18.614Z,11.70
2023-03-07T10:32:53.762Z,10.67
2023-03-07T10:35:26.539Z,10.13
2023-03-07T10:38:05.347Z,9.80
2023-03-07T10:40:56.908Z,9.83
2023-03-07T10:43:34.314Z,9.33
2023-03-07T10:46:26.593Z,9.47
2023-03-07T10:49:01.495Z,9.93
2023-03-07T10:52:06.641Z,9.23
2023-03-07T10:54:37.435Z,10.13
2023-03-07T10:57:26.815Z,9.57
2023-03-07T10:59:53.500Z,9.37
2023-03-07T11:02:32.192Z,9.83
2023-03-07T11:04:59.139Z,8.80
2023-03-07T11:07:34.613Z,8.37
2023-03-07T11:10:12.625Z,9.30
2023-03-07T11:12:46.262Z,8.53
2023-03-07T11:15:25.066Z,8.13
2023-03-07T11:17:52.821Z,8.07
2023-03-07T11:20:26.283Z,8.23
2023-03-07T11:23:14.810Z,8.20
2023-03-07T11:25:41.369Z,9.00
2023-03-07T11:28:30.047Z,8.23
2023-03-07T11:31:55.882Z,9.47
2023-03-07T11:34:28.185Z,9.40
2023-03-07T11:37:15.097Z,9.40
2023-03-07T11:39:57.798Z,9.80
2023-03-07T11:42:31.764Z,7.90
2023-03-07T11:45:22.034Z,9.23
2023-03-07T11:48:01.138Z,8.20
2023-03-07T11:50:31.155Z,8.23
2023-03-07T11:53:03.897Z,8.57
2023-03-07T11:55:41.532Z,9.17
2023-03-07T11:58:30.373Z,8.83
2023-03-07T12:00:59.628Z,8.30
2023-03-07T12:04:01.681Z,8.87
2023-03-07T12:06:37.300Z,8.57
2023-03-07T12:09:26.287Z,8.07
2023-03-07T12:12:10.936Z,9.23
2023-03-07T12:15:00.697Z,8.90
2023-03-07T12:18:14.506Z,9.77
2023-03-07T12:21:02.250Z,8.83
2023-03-07T12:23:48.452Z,7.87
2023-03-07T12:26:28.792Z,6.37
2023-03-07T12:29:26.952Z,7.87
2023-03-07T12:32:00.660Z,7.33
2023-03-07T12:34:39.096Z,7.47
2023-03-07T12:37:18.642Z,7.67
2023-03-07T12:39:49.154Z,7.80
2023-03-07T12:42:33.938Z,7.87
2023-03-07T12:45:12.850Z,9.00
2023-03-07T12:47:53.609Z,7.40
2023-03-07T12:50:46.369Z,7.07
2023-03-07T12:53:47.163Z,7.87
2023-03-07T12:56:22.054Z,7.50
2023-03-07T12:58:58.307Z,7.17
2023-03-07T13:01:48.909Z,7.70
2023-03-07T13:04:38.531Z,7.57
2023-03-07T13:07:12.569Z,7.77
2023-03-07T13:09:45.912Z,7.57
2023-03-07T13:12:26.046Z,8.03
2023-03-07T13:15:04.757Z,7.83
2023-03-07T13:17:31.575Z,7.07
2023-03-07T13:20:01.001Z,8.17
2023-03-07T13:22:30.654Z,8.57
2023-03-07T13:25:20.074Z,7.67
2023-03-07T13:27:54.034Z,7.67
2023-03-07T13:30:30.184Z,7.57
2023-03-07T13:33:29.062Z,8.10
2023-03-07T13:36:00.547Z,8.30
2023-03-07T13:38:42.346Z,8.07
2023-03-07T13:41:11.259Z,7.00
2023-03-07T13:43:47.031Z,6.93
2023-03-07T13:46:54.401Z,6.83
2023-03-07T13:49:35.035Z,7.00
2023-03-07T13:52:22.865Z,6.83
2023-03-07T13:54:51.029Z,6.93
2023-03-07T13:57:27.265Z,7.37
2023-03-07T13:59:56.525Z,7.03
2023-03-07T14:02:23.631Z,6.83
2023-03-07T14:04:55.701Z,5.87
2023-03-07T14:07:36.608Z,6.13
2023-03-07T14:10:22.059Z,6.00
2023-03-07T14:13:21.892Z,5.83
2023-03-07T14:16:04.360Z,6.57
2023-03-07T14:18:40.233Z,6.83
2023-03-07T14:21:31.753Z,7.00
2023-03-07T14:24:10.433Z,6.77
2023-03-07T14:26:50.889Z,7.00
2023-03-07T14:29:22.882Z,7.60
2023-03-07T14:31:53.052Z,7.37
2023-03-07T14:34:19.552Z,6.97
2023-03-07T14:36:50.184Z,8.27
2023-03-07T14:39:17.947Z,7.37
2023-03-07T14:42:03.000Z,8.13
2023-03-07T14:45:06.081Z,6.97
2023-03-07T14:47:38.098Z,7.20
2023-03-07T14:50:12.706Z,6.07
2023-03-07T14:52:39.261Z,6.40
2023-03-07T14:55:07.160Z,6.30
2023-03-07T14:57:37.637Z,6.47
2023-03-07T15:00:07.361Z,5.50
2023-03-07T15:02:33.903Z,6.45
2023-03-07T15:05:02.492Z,4.93
2023-03-07T15:07:29.008Z,3.97
2023-03-07T15:09:55.565Z,4.95
2023-03-07T15:12:27.506Z,7.95
2023-03-07T15:15:04.367Z,5.90
2023-03-07T15:17:45.070Z,5.25
2023-03-07T15:20:22.917Z,5.97
2023-03-07T15:22:49.950Z,6.28
2023-03-07T15:25:25.541Z,5.80
2023-03-07T15:28:06.077Z,5.50
2023-03-07T15:30:35.373Z,5.40
2023-03-07T15:33:19.770Z,5.38
2023-03-07T15:36:06.830Z,5.93
2023-03-07T15:38:36.804Z,5.90
2023-03-07T15:41:36.295Z,5.45
2023-03-07T15:44:22.161Z,5.38
2023-03-07T15:46:51.844Z,5.20
2023-03-07T15:49:42.106Z,5.93
2023-03-07T15:52:20.078Z,6.05
2023-03-07T15:54:50.942Z,6.15
2023-03-07T15:57:22.415Z,6.40
2023-03-07T15:59:53.981Z,5.72
2023-03-07T16:02:37.826Z,5.88
2023-03-07T16:05:24.416Z,6.63
2023-03-07T16:07:53.190Z,6.07
2023-03-07T16:10:21.634Z,5.75
2023-03-07T16:12:49.128Z,6.20
2023-03-07T16:15:18.546Z,6.20
2023-03-07T16:17:46.943Z,5.90
2023-03-07T16:20:19.586Z,5.85
2023-03-07T16:22:49.553Z,5.68
2023-03-07T16:25:16.976Z,6.43
2023-03-07T16:27:53.332Z,6.05
2023-03-07T16:30:26.196Z,5.97
2023-03-07T16:32:52.945Z,6.97
2023-03-07T16:35:21.998Z,6.90
2023-03-07T16:37:48.649Z,6.35
2023-03-07T16:40:16.190Z,7.13
2023-03-07T16:42:45.782Z,6.45
2023-03-07T16:45:35.332Z,5.90
2023-03-07T16:48:03.349Z,5.90
2023-03-07T16:50:34.787Z,6.43
2023-03-07T16:53:03.786Z,6.00
2023-03-07T16:55:34.269Z,7.63
2023-03-07T16:58:05.811Z,6.40
2023-03-07T17:00:35.227Z,6.25
2023-03-07T17:03:04.977Z,6.63
2023-03-07T17:05:34.650Z,7.10
2023-03-07T17:08:04.907Z,6.32
2023-03-07T17:10:36.366Z,5.95
2023-03-07T17:13:08.323Z,6.35
2023-03-07T17:15:36.501Z,6.45
2023-03-07T17:18:03.701Z,6.28
2023-03-07T17:20:33.764Z,6.40
2023-03-07T17:23:02.578Z,5.78
2023-03-07T17:25:29.189Z,6.35
2023-03-07T17:28:09.042Z,6.03
2023-03-07T17:30:37.697Z,5.95
2023-03-07T17:33:04.426Z,6.20
2023-03-07T17:35:34.606Z,6.57
2023-03-07T17:38:03.969Z,7.20
2023-03-07T17:40:35.213Z,7.43
2023-03-07T17:43:03.821Z,6.15
2023-03-07T17:45:30.469Z,6.55
2023-03-07T17:47:57.396Z,6.95
2023-03-07T17:50:24.533Z,7.00
2023-03-07T17:52:52.803Z,7.30
2023-03-07T17:55:20.297Z,7.85
2023-03-07T17:57:46.754Z,6.57
2023-03-07T18:00:14.344Z,6.43
2023-03-07T18:02:45.026Z,6.63
2023-03-07T18:05:13.125Z,7.83
2023-03-07T18:07:41.332Z,6.90
2023-03-07T18:10:09.161Z,7.80
2023-03-07T18:12:39.037Z,7.70
2023-03-07T18:15:13.503Z,8.67
2023-03-07T18:17:47.895Z,8.67
2023-03-07T18:20:17.725Z,9.13
2023-03-07T18:22:44.266Z,9.90
2023-03-07T18:25:12.999Z,8.87
2023-03-07T18:27:39.509Z,9.07
2023-03-07T18:30:12.215Z,9.30
2023-03-07T18:32:38.801Z,9.37
2023-03-07T18:35:05.944Z,10.67
2023-03-07T18:37:35.758Z,10.90
2023-03-07T18:40:05.935Z,10.53
2023-03-07T18:42:35.887Z,10.40
2023-03-07T18:45:06.177Z,11.17
2023-03-07T18:47:35.679Z,10.23
2023-03-07T18:50:05.693Z,11.23
2023-03-07T18:52:35.282Z,11.30
2023-03-07T18:55:05.459Z,11.50
2023-03-07T18:57:35.048Z,10.90
2023-03-07T19:00:04.199Z,10.43
2023-03-07T19:02:32.868Z,10.17
2023-03-07T19:05:05.261Z,11.17
2023-03-07T19:07:41.149Z,9.90
2023-03-07T19:10:11.673Z,9.43
2023-03-07T19:12:39.055Z,9.50
2023-03-07T19:15:06.504Z,8.77
2023-03-07T19:17:40.622Z,9.23
2023-03-07T19:20:08.157Z,9.70
2023-03-07T19:22:37.936Z,8.90
2023-03-07T19:25:05.392Z,9.37
2023-03-07T19:27:34.731Z,9.93
2023-03-07T19:30:04.128Z,9.60
2023-03-07T19:32:30.647Z,9.07
2023-03-07T19:34:57.194Z,8.73
2023-03-07T19:37:23.996Z,9.13
2023-03-07T19:39:53.819Z,10.00
2023-03-07T19:42:21.652Z,9.93
2023-03-07T19:44:48.151Z,9.83
2023-03-07T19:47:14.673Z,9.43
2023-03-07T19:49:41.108Z,9.10
2023-03-07T19:52:07.654Z,9.77
2023-03-07T19:54:34.247Z,10.07
2023-03-07T19:57:00.724Z,10.03
2023-03-07T19:59:27.197Z,8.43
2023-03-07T20:01:53.696Z,9.73
2023-03-07T20:04:20.177Z,9.50
2023-03-07T20:06:46.747Z,8.63
2023-03-07T20:09:14.045Z,8.87
2023-03-07T20:11:43.283Z,8.87
2023-03-07T20:14:11.491Z,9.27
2023-03-07T20:16:38.191Z,10.13
2023-03-07T20:19:07.070Z,9.97
2023-03-07T20:21:36.822Z,11.57
2023-03-07T20:24:07.416Z,10.00
2023-03-07T20:26:36.373Z,10.40
2023-03-07T20:29:07.780Z,10.23
2023-03-07T20:31:34.666Z,10.40
2023-03-07T20:34:04.401Z,11.63
2023-03-07T20:36:36.679Z,10.53
2023-03-07T20:39:10.053Z,10.77
2023-03-07T20:41:39.361Z,9.93
2023-03-07T20:44:07.772Z,10.20
2023-03-07T20:46:35.722Z,9.93
2023-03-07T20:49:07.518Z,10.37
2023-03-07T20:51:36.944Z,9.60
2023-03-07T20:54:14.627Z,9.80
2023-03-07T20:56:41.888Z,11.20
2023-03-07T20:59:12.010Z,9.90
2023-03-07T21:01:38.949Z,9.87
2023-03-07T21:04:11.677Z,10.83
2023-03-07T21:06:41.170Z,10.27
2023-03-07T21:09:10.184Z,9.83
2023-03-07T21:11:38.853Z,9.60
2023-03-07T21:14:05.548Z,9.60
2023-03-07T21:16:34.185Z,11.47
2023-03-07T21:19:06.017Z,10.83
2023-03-07T21:21:36.559Z,10.20
2023-03-07T21:24:07.003Z,9.57
2023-03-07T21:26:36.781Z,10.33
2023-03-07T21:29:09.012Z,9.27
2023-03-07T21:31:36.802Z,10.20
2023-03-07T21:34:08.591Z,9.33
2023-03-07T21:36:40.687Z,9.53
2023-03-07T21:39:09.719Z,10.73
2023-03-07T21:41:36.575Z,8.57
2023-03-07T21:44:06.202Z,10.10
2023-03-07T21:46:36.997Z,9.03
2023-03-07T21:49:07.506Z,8.90
2023-03-07T21:51:37.430Z,10.27
2023-03-07T21:54:08.636Z,9.57
2023-03-07T21:56:37.974Z,9.53
2023-03-07T21:59:08.231Z,8.97
2023-03-07T22:01:37.604Z,8.67
2023-03-07T22:04:07.817Z,9.57
2023-03-07T22:06:36.850Z,9.77
2023-03-07T22:09:03.456Z,9.63
2023-03-07T22:11:30.796Z,9.17
2023-03-07T22:13:57.281Z,8.63
2023-03-07T22:16:24.187Z,8.87
2023-03-07T22:18:57.909Z,8.53
2023-03-07T22:21:27.841Z,8.33
2023-03-07T22:24:00.625Z,8.43
2023-03-07T22:26:28.878Z,7.67
2023-03-07T22:29:07.348Z,8.40
2023-03-07T22:31:33.895Z,7.20
2023-03-07T22:34:00.572Z,7.50
2023-03-07T22:36:27.442Z,7.93
2023-03-07T22:38:55.667Z,8.13
2023-03-07T22:41:24.233Z,7.87
2023-03-07T22:43:52.603Z,7.20
2023-03-07T22:46:19.930Z,6.93
2023-03-07T22:48:46.901Z,6.23
2023-03-07T22:51:20.831Z,6.63
2023-03-07T22:53:48.111Z,6.83
2023-03-07T22:56:26.643Z,6.07
2023-03-07T22:58:56.445Z,6.67
2023-03-07T23:01:27.798Z,6.27
2023-03-07T23:03:55.830Z,6.73
2023-03-07T23:06:24.218Z,5.93
2023-03-07T23:08:52.768Z,6.33
2023-03-07T23:11:21.616Z,6.00
2023-03-07T23:13:48.126Z,5.37
2023-03-07T23:16:17.776Z,5.93
2023-03-07T23:18:45.431Z,5.87
2023-03-07T23:21:15.269Z,5.83
2023-03-07T23:23:42.118Z,5.07
2023-03-07T23:26:08.981Z,5.43
2023-03-07T23:28:35.653Z,5.67
2023-03-07T23:31:02.189Z,5.03
2023-03-07T23:33:28.715Z,5.43
2023-03-07T23:35:59.264Z,5.50
2023-03-07T23:38:25.735Z,5.47
2023-03-07T23:40:52.209Z,5.00
2023-03-07T23:43:18.636Z,5.30
2023-03-07T23:45:45.133Z,5.23
2023-03-07T23:48:11.565Z,6.13
2023-03-07T23:50:41.080Z,5.13
2023-03-07T23:53:07.604Z,5.10
2023-03-07T23:55:34.085Z,5.73
2023-03-07T23:58:00.557Z,6.00
